sensor_id;sensor_type;location;lat;lon;timestamp;P1;durP1;ratioP1;P2;durP2;ratioP2
60588;SDS011;46421;48.610;9.334;2022-09-01T00:02:10;0.30;;;0.30;;
60588;SDS011;46421;48.610;9.334;2022-09-01T00:04:36;0.10;;;0.10;;
60588;SDS011;46421;48.610;9.334;2022-09-01T00:07:03;0.20;;;0.20;;
60588;SDS011;46421;48.610;9.334;2022-09-01T00:09:29;0.20;;;0.20;;
60588;SDS011;46421;48.610;9.334;2022-09-01T00:11:54;0.20;;;0.20;;
60588;SDS011;46421;48.610;9.334;2022-09-01T00:14:24;0.30;;;0.30;;
60588;SDS011;46421;48.610;9.334;2022-09-01T00:16:52;0.30;;;0.30;;
60588;SDS011;46421;48.610;9.334;2022-09-01T00:19:18;0.25;;;0.25;;
60588;SDS011;46421;48.610;9.334;2022-09-01T00:21:44;0.20;;;0.20;;
60588;SDS011;46421;48.610;9.334;2022-09-01T00:24:12;0.20;;;0.20;;
60588;SDS011;46421;48.610;9.334;2022-09-01T00:26:40;0.20;;;0.20;;
60588;SDS011;46421;48.610;9.334;2022-09-01T00:29:05;0.20;;;0.20;;
60588;SDS011;46421;48.610;9.334;2022-09-01T00:31:31;0.38;;;0.38;;
60588;SDS011;46421;48.610;9.334;2022-09-01T00:33:57;0.25;;;0.25;;
60588;SDS011;46421;48.610;9.334;2022-09-01T00:36:22;0.20;;;0.20;;
60588;SDS011;46421;48.610;9.334;2022-09-01T00:38:48;0.30;;;0.30;;
60588;SDS011;46421;48.610;9.334;2022-09-01T00:41:14;0.20;;;0.20;;
60588;SDS011;46421;48.610;9.334;2022-09-01T00:43:43;0.22;;;0.22;;
60588;SDS011;46421;48.610;9.334;2022-09-01T00:46:18;0.17;;;0.17;;
60588;SDS011;46421;48.610;9.334;2022-09-01T00:48:47;0.30;;;0.30;;
60588;SDS011;46421;48.610;9.334;2022-09-01T00:51:18;0.20;;;0.20;;
60588;SDS011;46421;48.610;9.334;2022-09-01T00:53:43;0.20;;;0.20;;
60588;SDS011;46421;48.610;9.334;2022-09-01T00:56:09;0.20;;;0.20;;
60588;SDS011;46421;48.610;9.334;2022-09-01T00:58:36;0.20;;;0.20;;
60588;SDS011;46421;48.610;9.334;2022-09-01T01:01:02;0.30;;;0.30;;
60588;SDS011;46421;48.610;9.334;2022-09-01T01:03:28;0.20;;;0.20;;
60588;SDS011;46421;48.610;9.334;2022-09-01T01:05:54;0.20;;;0.20;;
60588;SDS011;46421;48.610;9.334;2022-09-01T01:08:23;0.10;;;0.10;;
60588;SDS011;46421;48.610;9.334;2022-09-01T01:10:53;0.20;;;0.20;;
60588;SDS011;46421;48.610;9.334;2022-09-01T01:13:18;0.20;;;0.20;;
60588;SDS011;46421;48.610;9.334;2022-09-01T01:15:44;0.30;;;0.30;;
60588;SDS011;46421;48.610;9.334;2022-09-01T01:18:10;0.20;;;0.20;;
60588;SDS011;46421;48.610;9.334;2022-09-01T01:20:36;0.30;;;0.30;;
60588;SDS011;46421;48.610;9.334;2022-09-01T01:23:20;0.20;;;0.20;;
60588;SDS011;46421;48.610;9.334;2022-09-01T01:25:51;0.20;;;0.20;;
60588;SDS011;46421;48.610;9.334;2022-09-01T01:28:20;0.60;;;0.60;;
60588;SDS011;46421;48.610;9.334;2022-09-01T01:30:49;0.43;;;0.43;;
60588;SDS011;46421;48.610;9.334;2022-09-01T01:33:19;0.40;;;0.40;;
60588;SDS011;46421;48.610;9.334;2022-09-01T01:35:49;1.00;;;0.90;;
60588;SDS011;46421;48.610;9.334;2022-09-01T01:38:16;0.68;;;0.68;;
60588;SDS011;46421;48.610;9.334;2022-09-01T01:40:42;2.03;;;1.48;;
60588;SDS011;46421;48.610;9.334;2022-09-01T01:43:08;0.80;;;0.80;;
60588;SDS011;46421;48.610;9.334;2022-09-01T01:45:33;1.52;;;1.10;;
60588;SDS011;46421;48.610;9.334;2022-09-01T01:47:59;1.13;;;1.02;;
60588;SDS011;46421;48.610;9.334;2022-09-01T01:50:26;0.40;;;0.40;;
60588;SDS011;46421;48.610;9.334;2022-09-01T01:52:53;0.40;;;0.40;;
60588;SDS011;46421;48.610;9.334;2022-09-01T01:55:18;0.20;;;0.20;;
60588;SDS011;46421;48.610;9.334;2022-09-01T01:57:47;0.40;;;0.40;;
60588;SDS011;46421;48.610;9.334;2022-09-01T02:00:12;1.52;;;1.05;;
60588;SDS011;46421;48.610;9.334;2022-09-01T02:02:38;1.58;;;1.10;;
60588;SDS011;46421;48.610;9.334;2022-09-01T02:05:03;0.60;;;0.60;;
60588;SDS011;46421;48.610;9.334;2022-09-01T02:07:29;0.50;;;0.50;;
60588;SDS011;46421;48.610;9.334;2022-09-01T02:09:54;0.45;;;0.45;;
60588;SDS011;46421;48.610;9.334;2022-09-01T02:12:19;0.30;;;0.30;;
60588;SDS011;46421;48.610;9.334;2022-09-01T02:14:44;0.30;;;0.30;;
60588;SDS011;46421;48.610;9.334;2022-09-01T02:17:10;0.40;;;0.40;;
60588;SDS011;46421;48.610;9.334;2022-09-01T02:19:35;0.52;;;0.52;;
60588;SDS011;46421;48.610;9.334;2022-09-01T02:22:00;0.30;;;0.30;;
60588;SDS011;46421;48.610;9.334;2022-09-01T02:24:26;0.30;;;0.30;;
60588;SDS011;46421;48.610;9.334;2022-09-01T02:26:51;0.30;;;0.30;;
60588;SDS011;46421;48.610;9.334;2022-09-01T02:29:18;0.30;;;0.30;;
60588;SDS011;46421;48.610;9.334;2022-09-01T02:31:45;0.30;;;0.30;;
60588;SDS011;46421;48.610;9.334;2022-09-01T02:34:14;0.30;;;0.30;;
60588;SDS011;46421;48.610;9.334;2022-09-01T02:36:41;0.30;;;0.30;;
60588;SDS011;46421;48.610;9.334;2022-09-01T02:39:13;0.50;;;0.50;;
60588;SDS011;46421;48.610;9.334;2022-09-01T02:41:40;0.30;;;0.30;;
60588;SDS011;46421;48.610;9.334;2022-09-01T02:44:05;0.60;;;0.60;;
60588;SDS011;46421;48.610;9.334;2022-09-01T02:46:30;0.20;;;0.20;;
60588;SDS011;46421;48.610;9.334;2022-09-01T02:48:56;0.30;;;0.30;;
60588;SDS011;46421;48.610;9.334;2022-09-01T02:51:22;0.22;;;0.22;;
60588;SDS011;46421;48.610;9.334;2022-09-01T02:53:48;0.22;;;0.22;;
60588;SDS011;46421;48.610;9.334;2022-09-01T02:56:13;0.30;;;0.30;;
60588;SDS011;46421;48.610;9.334;2022-09-01T02:58:40;0.30;;;0.30;;
60588;SDS011;46421;48.610;9.334;2022-09-01T03:01:10;0.30;;;0.30;;
60588;SDS011;46421;48.610;9.334;2022-09-01T03:03:37;0.30;;;0.30;;
60588;SDS011;46421;48.610;9.334;2022-09-01T03:06:02;0.28;;;0.28;;
60588;SDS011;46421;48.610;9.334;2022-09-01T03:08:28;0.37;;;0.37;;
60588;SDS011;46421;48.610;9.334;2022-09-01T03:10:53;0.30;;;0.30;;
60588;SDS011;46421;48.610;9.334;2022-09-01T03:13:19;0.30;;;0.30;;
60588;SDS011;46421;48.610;9.334;2022-09-01T03:15:47;0.30;;;0.30;;
60588;SDS011;46421;48.610;9.334;2022-09-01T03:18:13;0.20;;;0.20;;
60588;SDS011;46421;48.610;9.334;2022-09-01T03:20:39;0.22;;;0.22;;
60588;SDS011;46421;48.610;9.334;2022-09-01T03:23:06;0.20;;;0.20;;
60588;SDS011;46421;48.610;9.334;2022-09-01T03:25:32;0.20;;;0.20;;
60588;SDS011;46421;48.610;9.334;2022-09-01T03:27:57;0.30;;;0.30;;
60588;SDS011;46421;48.610;9.334;2022-09-01T03:30:23;0.30;;;0.30;;
60588;SDS011;46421;48.610;9.334;2022-09-01T03:32:48;0.30;;;0.30;;
60588;SDS011;46421;48.610;9.334;2022-09-01T03:35:14;0.30;;;0.30;;
60588;SDS011;46421;48.610;9.334;2022-09-01T03:37:39;0.28;;;0.28;;
60588;SDS011;46421;48.610;9.334;2022-09-01T03:40:05;0.30;;;0.30;;
60588;SDS011;46421;48.610;9.334;2022-09-01T03:42:32;0.22;;;0.22;;
60588;SDS011;46421;48.610;9.334;2022-09-01T03:44:57;0.30;;;0.30;;
60588;SDS011;46421;48.610;9.334;2022-09-01T03:47:22;0.40;;;0.40;;
60588;SDS011;46421;48.610;9.334;2022-09-01T03:49:49;0.20;;;0.20;;
60588;SDS011;46421;48.610;9.334;2022-09-01T03:52:18;0.30;;;0.30;;
60588;SDS011;46421;48.610;9.334;2022-09-01T03:54:43;0.30;;;0.30;;
60588;SDS011;46421;48.610;9.334;2022-09-01T03:57:09;0.30;;;0.30;;
60588;SDS011;46421;48.610;9.334;2022-09-01T03:59:34;0.30;;;0.30;;
60588;SDS011;46421;48.610;9.334;2022-09-01T04:02:01;0.30;;;0.30;;
60588;SDS011;46421;48.610;9.334;2022-09-01T04:04:26;0.30;;;0.30;;
60588;SDS011;46421;48.610;9.334;2022-09-01T04:06:51;0.20;;;0.20;;
60588;SDS011;46421;48.610;9.334;2022-09-01T04:09:17;0.30;;;0.30;;
60588;SDS011;46421;48.610;9.334;2022-09-01T04:11:42;0.40;;;0.40;;
60588;SDS011;46421;48.610;9.334;2022-09-01T04:14:09;0.20;;;0.20;;
60588;SDS011;46421;48.610;9.334;2022-09-01T04:16:35;0.30;;;0.30;;
60588;SDS011;46421;48.610;9.334;2022-09-01T04:19:00;0.20;;;0.20;;
60588;SDS011;46421;48.610;9.334;2022-09-01T04:21:25;0.30;;;0.30;;
60588;SDS011;46421;48.610;9.334;2022-09-01T04:23:50;0.30;;;0.30;;
60588;SDS011;46421;48.610;9.334;2022-09-01T04:26:16;0.30;;;0.30;;
60588;SDS011;46421;48.610;9.334;2022-09-01T04:28:42;0.30;;;0.30;;
60588;SDS011;46421;48.610;9.334;2022-09-01T04:31:14;0.30;;;0.30;;
60588;SDS011;46421;48.610;9.334;2022-09-01T04:33:44;0.30;;;0.30;;
60588;SDS011;46421;48.610;9.334;2022-09-01T04:36:22;0.20;;;0.20;;
60588;SDS011;46421;48.610;9.334;2022-09-01T04:38:55;0.17;;;0.17;;
60588;SDS011;46421;48.610;9.334;2022-09-01T04:41:23;0.30;;;0.30;;
60588;SDS011;46421;48.610;9.334;2022-09-01T04:43:50;0.30;;;0.30;;
60588;SDS011;46421;48.610;9.334;2022-09-01T04:46:18;0.25;;;0.25;;
60588;SDS011;46421;48.610;9.334;2022-09-01T04:48:43;0.20;;;0.20;;
60588;SDS011;46421;48.610;9.334;2022-09-01T04:51:09;0.20;;;0.20;;
60588;SDS011;46421;48.610;9.334;2022-09-01T04:53:36;0.22;;;0.22;;
60588;SDS011;46421;48.610;9.334;2022-09-01T04:56:02;0.20;;;0.20;;
60588;SDS011;46421;48.610;9.334;2022-09-01T04:58:28;0.30;;;0.30;;
60588;SDS011;46421;48.610;9.334;2022-09-01T05:00:53;0.30;;;0.30;;
60588;SDS011;46421;48.610;9.334;2022-09-01T05:03:21;0.30;;;0.30;;
60588;SDS011;46421;48.610;9.334;2022-09-01T05:05:46;0.30;;;0.30;;
60588;SDS011;46421;48.610;9.334;2022-09-01T05:08:13;0.17;;;0.17;;
60588;SDS011;46421;48.610;9.334;2022-09-01T05:10:44;0.30;;;0.30;;
60588;SDS011;46421;48.610;9.334;2022-09-01T05:13:12;0.22;;;0.22;;
60588;SDS011;46421;48.610;9.334;2022-09-01T05:15:39;0.30;;;0.30;;
60588;SDS011;46421;48.610;9.334;2022-09-01T05:18:05;0.30;;;0.30;;
60588;SDS011;46421;48.610;9.334;2022-09-01T05:20:30;0.32;;;0.32;;
60588;SDS011;46421;48.610;9.334;2022-09-01T05:22:55;0.30;;;0.30;;
60588;SDS011;46421;48.610;9.334;2022-09-01T05:25:21;0.25;;;0.25;;
60588;SDS011;46421;48.610;9.334;2022-09-01T05:27:46;0.30;;;0.30;;
60588;SDS011;46421;48.610;9.334;2022-09-01T05:30:11;0.40;;;0.40;;
60588;SDS011;46421;48.610;9.334;2022-09-01T05:32:37;0.40;;;0.40;;
60588;SDS011;46421;48.610;9.334;2022-09-01T05:35:03;0.30;;;0.30;;
60588;SDS011;46421;48.610;9.334;2022-09-01T05:37:28;0.20;;;0.20;;
60588;SDS011;46421;48.610;9.334;2022-09-01T05:39:54;0.30;;;0.30;;
60588;SDS011;46421;48.610;9.334;2022-09-01T05:42:19;0.40;;;0.40;;
60588;SDS011;46421;48.610;9.334;2022-09-01T05:44:44;0.40;;;0.40;;
60588;SDS011;46421;48.610;9.334;2022-09-01T05:47:10;0.30;;;0.30;;
60588;SDS011;46421;48.610;9.334;2022-09-01T05:49:36;0.30;;;0.30;;
60588;SDS011;46421;48.610;9.334;2022-09-01T05:52:01;0.32;;;0.32;;
60588;SDS011;46421;48.610;9.334;2022-09-01T05:54:27;0.30;;;0.30;;
60588;SDS011;46421;48.610;9.334;2022-09-01T05:56:53;0.30;;;0.30;;
60588;SDS011;46421;48.610;9.334;2022-09-01T05:59:21;0.20;;;0.20;;
60588;SDS011;46421;48.610;9.334;2022-09-01T06:01:47;0.30;;;0.30;;
60588;SDS011;46421;48.610;9.334;2022-09-01T06:04:12;0.40;;;0.40;;
60588;SDS011;46421;48.610;9.334;2022-09-01T06:06:44;0.30;;;0.30;;
60588;SDS011;46421;48.610;9.334;2022-09-01T06:09:12;0.30;;;0.30;;
60588;SDS011;46421;48.610;9.334;2022-09-01T06:11:39;0.20;;;0.20;;
60588;SDS011;46421;48.610;9.334;2022-09-01T06:14:04;0.30;;;0.30;;
60588;SDS011;46421;48.610;9.334;2022-09-01T06:16:29;0.30;;;0.30;;
60588;SDS011;46421;48.610;9.334;2022-09-01T06:18:55;0.20;;;0.20;;
60588;SDS011;46421;48.610;9.334;2022-09-01T06:21:21;0.20;;;0.20;;
60588;SDS011;46421;48.610;9.334;2022-09-01T06:23:46;0.30;;;0.30;;
60588;SDS011;46421;48.610;9.334;2022-09-01T06:29:08;0.40;;;0.40;;
60588;SDS011;46421;48.610;9.334;2022-09-01T06:31:34;0.30;;;0.30;;
60588;SDS011;46421;48.610;9.334;2022-09-01T06:34:01;0.30;;;0.30;;
60588;SDS011;46421;48.610;9.334;2022-09-01T06:36:27;0.40;;;0.40;;
60588;SDS011;46421;48.610;9.334;2022-09-01T06:38:54;0.30;;;0.30;;
60588;SDS011;46421;48.610;9.334;2022-09-01T06:41:20;0.20;;;0.20;;
60588;SDS011;46421;48.610;9.334;2022-09-01T06:43:47;0.30;;;0.30;;
60588;SDS011;46421;48.610;9.334;2022-09-01T06:46:14;0.38;;;0.38;;
60588;SDS011;46421;48.610;9.334;2022-09-01T06:48:41;0.40;;;0.40;;
60588;SDS011;46421;48.610;9.334;2022-09-01T06:51:06;0.30;;;0.30;;
60588;SDS011;46421;48.610;9.334;2022-09-01T06:53:31;0.30;;;0.30;;
60588;SDS011;46421;48.610;9.334;2022-09-01T06:55:57;0.30;;;0.30;;
60588;SDS011;46421;48.610;9.334;2022-09-01T06:58:22;0.32;;;0.32;;
60588;SDS011;46421;48.610;9.334;2022-09-01T07:00:48;0.30;;;0.30;;
60588;SDS011;46421;48.610;9.334;2022-09-01T07:03:14;0.30;;;0.30;;
60588;SDS011;46421;48.610;9.334;2022-09-01T07:05:40;0.20;;;0.20;;
60588;SDS011;46421;48.610;9.334;2022-09-01T07:08:08;0.30;;;0.30;;
60588;SDS011;46421;48.610;9.334;2022-09-01T07:10:39;0.25;;;0.25;;
60588;SDS011;46421;48.610;9.334;2022-09-01T07:13:06;0.20;;;0.20;;
60588;SDS011;46421;48.610;9.334;2022-09-01T07:15:32;0.20;;;0.20;;
60588;SDS011;46421;48.610;9.334;2022-09-01T07:18:01;0.38;;;0.38;;
60588;SDS011;46421;48.610;9.334;2022-09-01T07:20:27;0.20;;;0.20;;
60588;SDS011;46421;48.610;9.334;2022-09-01T07:22:52;0.30;;;0.30;;
60588;SDS011;46421;48.610;9.334;2022-09-01T07:25:19;0.30;;;0.30;;
60588;SDS011;46421;48.610;9.334;2022-09-01T07:27:45;0.30;;;0.30;;
60588;SDS011;46421;48.610;9.334;2022-09-01T07:30:10;0.30;;;0.30;;
60588;SDS011;46421;48.610;9.334;2022-09-01T07:32:36;0.30;;;0.30;;
60588;SDS011;46421;48.610;9.334;2022-09-01T07:35:03;0.20;;;0.20;;
60588;SDS011;46421;48.610;9.334;2022-09-01T07:37:28;0.30;;;0.30;;
60588;SDS011;46421;48.610;9.334;2022-09-01T07:39:54;0.50;;;0.50;;
60588;SDS011;46421;48.610;9.334;2022-09-01T07:42:19;0.30;;;0.30;;
60588;SDS011;46421;48.610;9.334;2022-09-01T07:44:44;0.20;;;0.20;;
60588;SDS011;46421;48.610;9.334;2022-09-01T07:47:10;0.30;;;0.30;;
60588;SDS011;46421;48.610;9.334;2022-09-01T07:49:35;0.50;;;0.50;;
60588;SDS011;46421;48.610;9.334;2022-09-01T07:52:01;0.30;;;0.30;;
60588;SDS011;46421;48.610;9.334;2022-09-01T07:54:27;0.10;;;0.10;;
60588;SDS011;46421;48.610;9.334;2022-09-01T07:56:53;0.10;;;0.10;;
60588;SDS011;46421;48.610;9.334;2022-09-01T07:59:18;0.10;;;0.10;;
60588;SDS011;46421;48.610;9.334;2022-09-01T08:01:43;0.30;;;0.30;;
60588;SDS011;46421;48.610;9.334;2022-09-01T08:04:09;0.10;;;0.10;;
60588;SDS011;46421;48.610;9.334;2022-09-01T08:06:34;0.10;;;0.10;;
60588;SDS011;46421;48.610;9.334;2022-09-01T08:08:59;0.10;;;0.10;;
60588;SDS011;46421;48.610;9.334;2022-09-01T08:11:26;0.20;;;0.20;;
60588;SDS011;46421;48.610;9.334;2022-09-01T08:13:54;0.20;;;0.20;;
60588;SDS011;46421;48.610;9.334;2022-09-01T08:16:20;0.30;;;0.30;;
60588;SDS011;46421;48.610;9.334;2022-09-01T08:18:46;0.15;;;0.15;;
60588;SDS011;46421;48.610;9.334;2022-09-01T08:21:11;0.10;;;0.10;;
60588;SDS011;46421;48.610;9.334;2022-09-01T08:23:37;0.30;;;0.30;;
60588;SDS011;46421;48.610;9.334;2022-09-01T08:26:04;0.50;;;0.50;;
60588;SDS011;46421;48.610;9.334;2022-09-01T08:28:34;0.10;;;0.10;;
60588;SDS011;46421;48.610;9.334;2022-09-01T08:31:04;0.20;;;0.20;;
60588;SDS011;46421;48.610;9.334;2022-09-01T08:33:40;0.10;;;0.10;;
60588;SDS011;46421;48.610;9.334;2022-09-01T08:36:09;0.10;;;0.10;;
60588;SDS011;46421;48.610;9.334;2022-09-01T08:38:37;0.60;;;0.60;;
60588;SDS011;46421;48.610;9.334;2022-09-01T08:41:02;0.10;;;0.10;;
60588;SDS011;46421;48.610;9.334;2022-09-01T08:46:31;0.10;;;0.10;;
60588;SDS011;46421;48.610;9.334;2022-09-01T08:48:58;0.55;;;0.55;;
60588;SDS011;46421;48.610;9.334;2022-09-01T08:54:46;0.10;;;0.10;;
60588;SDS011;46421;48.610;9.334;2022-09-01T09:00:06;0.10;;;0.10;;
60588;SDS011;46421;48.610;9.334;2022-09-01T09:02:38;0.10;;;0.10;;
60588;SDS011;46421;48.610;9.334;2022-09-01T09:10:41;0.15;;;0.15;;
60588;SDS011;46421;48.610;9.334;2022-09-01T09:13:10;0.17;;;0.17;;
60588;SDS011;46421;48.610;9.334;2022-09-01T09:16:01;0.10;;;0.10;;
60588;SDS011;46421;48.610;9.334;2022-09-01T09:18:31;0.20;;;0.20;;
60588;SDS011;46421;48.610;9.334;2022-09-01T09:21:15;0.10;;;0.10;;
60588;SDS011;46421;48.610;9.334;2022-09-01T09:23:46;0.10;;;0.10;;
60588;SDS011;46421;48.610;9.334;2022-09-01T09:26:14;0.10;;;0.10;;
60588;SDS011;46421;48.610;9.334;2022-09-01T09:28:40;0.10;;;0.10;;
60588;SDS011;46421;48.610;9.334;2022-09-01T09:31:24;0.10;;;0.10;;
60588;SDS011;46421;48.610;9.334;2022-09-01T09:33:51;0.10;;;0.10;;
60588;SDS011;46421;48.610;9.334;2022-09-01T09:36:18;0.10;;;0.10;;
60588;SDS011;46421;48.610;9.334;2022-09-01T09:38:46;0.10;;;0.10;;
60588;SDS011;46421;48.610;9.334;2022-09-01T09:41:31;0.10;;;0.10;;
60588;SDS011;46421;48.610;9.334;2022-09-01T09:43:57;0.10;;;0.10;;
60588;SDS011;46421;48.610;9.334;2022-09-01T09:49:10;0.10;;;0.10;;
60588;SDS011;46421;48.610;9.334;2022-09-01T09:51:46;0.10;;;0.10;;
60588;SDS011;46421;48.610;9.334;2022-09-01T09:54:15;0.10;;;0.10;;
60588;SDS011;46421;48.610;9.334;2022-09-01T09:56:44;0.05;;;0.05;;
60588;SDS011;46421;48.610;9.334;2022-09-01T09:59:15;0.10;;;0.10;;
60588;SDS011;46421;48.610;9.334;2022-09-01T10:01:43;0.20;;;0.20;;
60588;SDS011;46421;48.610;9.334;2022-09-01T10:04:09;0.10;;;0.10;;
60588;SDS011;46421;48.610;9.334;2022-09-01T10:06:39;0.20;;;0.20;;
60588;SDS011;46421;48.610;9.334;2022-09-01T10:09:33;0.20;;;0.20;;
60588;SDS011;46421;48.610;9.334;2022-09-01T10:12:00;0.15;;;0.15;;
60588;SDS011;46421;48.610;9.334;2022-09-01T10:14:28;0.30;;;0.30;;
60588;SDS011;46421;48.610;9.334;2022-09-01T10:17:01;0.20;;;0.20;;
60588;SDS011;46421;48.610;9.334;2022-09-01T10:19:31;0.10;;;0.10;;
60588;SDS011;46421;48.610;9.334;2022-09-01T10:21:57;0.10;;;0.10;;
60588;SDS011;46421;48.610;9.334;2022-09-01T10:24:29;0.10;;;0.10;;
60588;SDS011;46421;48.610;9.334;2022-09-01T10:27:04;0.50;;;0.50;;
60588;SDS011;46421;48.610;9.334;2022-09-01T10:29:36;0.10;;;0.10;;
60588;SDS011;46421;48.610;9.334;2022-09-01T10:32:07;0.10;;;0.10;;
60588;SDS011;46421;48.610;9.334;2022-09-01T10:34:37;0.10;;;0.10;;
60588;SDS011;46421;48.610;9.334;2022-09-01T10:37:03;0.10;;;0.10;;
60588;SDS011;46421;48.610;9.334;2022-09-01T10:39:30;0.10;;;0.10;;
60588;SDS011;46421;48.610;9.334;2022-09-01T10:41:59;0.10;;;0.10;;
60588;SDS011;46421;48.610;9.334;2022-09-01T10:44:29;0.20;;;0.20;;
60588;SDS011;46421;48.610;9.334;2022-09-01T10:46:57;0.20;;;0.20;;
60588;SDS011;46421;48.610;9.334;2022-09-01T10:51:50;0.10;;;0.10;;
60588;SDS011;46421;48.610;9.334;2022-09-01T10:54:51;0.10;;;0.10;;
60588;SDS011;46421;48.610;9.334;2022-09-01T11:06:11;0.10;;;0.10;;
60588;SDS011;46421;48.610;9.334;2022-09-01T11:11:03;0.10;;;0.10;;
60588;SDS011;46421;48.610;9.334;2022-09-01T11:13:50;0.20;;;0.20;;
60588;SDS011;46421;48.610;9.334;2022-09-01T11:16:27;0.40;;;0.40;;
60588;SDS011;46421;48.610;9.334;2022-09-01T11:27:07;0.40;;;0.40;;
60588;SDS011;46421;48.610;9.334;2022-09-01T11:29:55;0.40;;;0.40;;
60588;SDS011;46421;48.610;9.334;2022-09-01T11:32:24;0.40;;;0.40;;
60588;SDS011;46421;48.610;9.334;2022-09-01T11:34:56;0.32;;;0.32;;
60588;SDS011;46421;48.610;9.334;2022-09-01T11:37:24;0.20;;;0.20;;
60588;SDS011;46421;48.610;9.334;2022-09-01T11:39:50;0.20;;;0.20;;
60588;SDS011;46421;48.610;9.334;2022-09-01T11:42:20;0.20;;;0.20;;
60588;SDS011;46421;48.610;9.334;2022-09-01T11:45:01;0.40;;;0.40;;
60588;SDS011;46421;48.610;9.334;2022-09-01T11:47:37;0.30;;;0.30;;
60588;SDS011;46421;48.610;9.334;2022-09-01T11:50:07;0.30;;;0.30;;
60588;SDS011;46421;48.610;9.334;2022-09-01T11:52:51;0.30;;;0.30;;
60588;SDS011;46421;48.610;9.334;2022-09-01T11:55:41;0.30;;;0.30;;
60588;SDS011;46421;48.610;9.334;2022-09-01T11:58:13;0.28;;;0.28;;
60588;SDS011;46421;48.610;9.334;2022-09-01T12:00:54;0.30;;;0.30;;
60588;SDS011;46421;48.610;9.334;2022-09-01T12:03:22;0.30;;;0.30;;
60588;SDS011;46421;48.610;9.334;2022-09-01T12:05:57;0.40;;;0.40;;
60588;SDS011;46421;48.610;9.334;2022-09-01T12:08:26;0.20;;;0.20;;
60588;SDS011;46421;48.610;9.334;2022-09-01T12:11:04;0.10;;;0.10;;
60588;SDS011;46421;48.610;9.334;2022-09-01T12:13:33;0.30;;;0.30;;
60588;SDS011;46421;48.610;9.334;2022-09-01T12:16:01;0.40;;;0.40;;
60588;SDS011;46421;48.610;9.334;2022-09-01T12:18:32;0.30;;;0.30;;
60588;SDS011;46421;48.610;9.334;2022-09-01T12:21:00;0.13;;;0.13;;
60588;SDS011;46421;48.610;9.334;2022-09-01T12:23:32;0.22;;;0.22;;
60588;SDS011;46421;48.610;9.334;2022-09-01T12:26:01;0.20;;;0.20;;
60588;SDS011;46421;48.610;9.334;2022-09-01T12:28:30;0.30;;;0.30;;
60588;SDS011;46421;48.610;9.334;2022-09-01T12:30:58;0.30;;;0.30;;
60588;SDS011;46421;48.610;9.334;2022-09-01T12:33:25;0.15;;;0.15;;
60588;SDS011;46421;48.610;9.334;2022-09-01T12:35:51;0.00;;;0.00;;
60588;SDS011;46421;48.610;9.334;2022-09-01T12:38:35;0.30;;;0.30;;
60588;SDS011;46421;48.610;9.334;2022-09-01T12:41:00;0.20;;;0.20;;
60588;SDS011;46421;48.610;9.334;2022-09-01T12:43:30;0.30;;;0.30;;
60588;SDS011;46421;48.610;9.334;2022-09-01T12:45:59;0.20;;;0.20;;
60588;SDS011;46421;48.610;9.334;2022-09-01T12:50:54;0.28;;;0.28;;
60588;SDS011;46421;48.610;9.334;2022-09-01T12:53:22;0.20;;;0.20;;
60588;SDS011;46421;48.610;9.334;2022-09-01T12:55:54;0.35;;;0.35;;
60588;SDS011;46421;48.610;9.334;2022-09-01T12:58:26;0.30;;;0.30;;
60588;SDS011;46421;48.610;9.334;2022-09-01T13:01:15;0.30;;;0.30;;
60588;SDS011;46421;48.610;9.334;2022-09-01T13:04:05;0.30;;;0.30;;
60588;SDS011;46421;48.610;9.334;2022-09-01T13:06:38;0.30;;;0.30;;
60588;SDS011;46421;48.610;9.334;2022-09-01T13:09:03;0.30;;;0.30;;
60588;SDS011;46421;48.610;9.334;2022-09-01T13:11:29;0.30;;;0.30;;
60588;SDS011;46421;48.610;9.334;2022-09-01T13:13:54;0.20;;;0.20;;
60588;SDS011;46421;48.610;9.334;2022-09-01T13:16:19;0.10;;;0.10;;
60588;SDS011;46421;48.610;9.334;2022-09-01T13:18:45;0.30;;;0.30;;
60588;SDS011;46421;48.610;9.334;2022-09-01T13:21:11;0.20;;;0.20;;
60588;SDS011;46421;48.610;9.334;2022-09-01T13:23:37;0.10;;;0.10;;
60588;SDS011;46421;48.610;9.334;2022-09-01T13:26:02;0.10;;;0.10;;
60588;SDS011;46421;48.610;9.334;2022-09-01T13:28:27;0.13;;;0.13;;
60588;SDS011;46421;48.610;9.334;2022-09-01T13:30:54;0.10;;;0.10;;
60588;SDS011;46421;48.610;9.334;2022-09-01T13:33:22;0.00;;;0.00;;
60588;SDS011;46421;48.610;9.334;2022-09-01T13:35:48;0.10;;;0.10;;
60588;SDS011;46421;48.610;9.334;2022-09-01T13:38:14;0.10;;;0.10;;
60588;SDS011;46421;48.610;9.334;2022-09-01T13:40:39;0.10;;;0.10;;
60588;SDS011;46421;48.610;9.334;2022-09-01T13:43:05;0.10;;;0.10;;
60588;SDS011;46421;48.610;9.334;2022-09-01T13:45:30;0.00;;;0.00;;
60588;SDS011;46421;48.610;9.334;2022-09-01T13:47:55;0.10;;;0.10;;
60588;SDS011;46421;48.610;9.334;2022-09-01T13:50:21;0.10;;;0.10;;
60588;SDS011;46421;48.610;9.334;2022-09-01T13:52:50;0.10;;;0.10;;
60588;SDS011;46421;48.610;9.334;2022-09-01T13:55:20;0.10;;;0.10;;
60588;SDS011;46421;48.610;9.334;2022-09-01T13:57:50;0.10;;;0.10;;
60588;SDS011;46421;48.610;9.334;2022-09-01T14:00:17;0.00;;;0.00;;
60588;SDS011;46421;48.610;9.334;2022-09-01T14:02:44;0.00;;;0.00;;
60588;SDS011;46421;48.610;9.334;2022-09-01T14:05:11;0.05;;;0.05;;
60588;SDS011;46421;48.610;9.334;2022-09-01T14:07:36;0.00;;;0.00;;
60588;SDS011;46421;48.610;9.334;2022-09-01T14:10:02;0.10;;;0.10;;
60588;SDS011;46421;48.610;9.334;2022-09-01T14:12:28;0.10;;;0.10;;
60588;SDS011;46421;48.610;9.334;2022-09-01T14:14:53;0.10;;;0.10;;
60588;SDS011;46421;48.610;9.334;2022-09-01T14:17:18;0.10;;;0.10;;
60588;SDS011;46421;48.610;9.334;2022-09-01T14:19:48;0.10;;;0.10;;
60588;SDS011;46421;48.610;9.334;2022-09-01T14:22:14;0.10;;;0.10;;
60588;SDS011;46421;48.610;9.334;2022-09-01T14:24:39;0.10;;;0.10;;
60588;SDS011;46421;48.610;9.334;2022-09-01T14:27:04;0.00;;;0.00;;
60588;SDS011;46421;48.610;9.334;2022-09-01T14:29:30;0.00;;;0.00;;
60588;SDS011;46421;48.610;9.334;2022-09-01T14:31:55;0.10;;;0.10;;
60588;SDS011;46421;48.610;9.334;2022-09-01T14:34:20;0.10;;;0.10;;
60588;SDS011;46421;48.610;9.334;2022-09-01T14:36:45;0.10;;;0.10;;
60588;SDS011;46421;48.610;9.334;2022-09-01T14:39:11;0.10;;;0.10;;
60588;SDS011;46421;48.610;9.334;2022-09-01T14:41:36;0.10;;;0.10;;
60588;SDS011;46421;48.610;9.334;2022-09-01T14:44:01;0.10;;;0.10;;
60588;SDS011;46421;48.610;9.334;2022-09-01T14:46:27;0.10;;;0.10;;
60588;SDS011;46421;48.610;9.334;2022-09-01T14:48:53;0.10;;;0.10;;
60588;SDS011;46421;48.610;9.334;2022-09-01T14:51:20;0.00;;;0.00;;
60588;SDS011;46421;48.610;9.334;2022-09-01T14:53:47;0.10;;;0.10;;
60588;SDS011;46421;48.610;9.334;2022-09-01T14:56:13;0.10;;;0.10;;
60588;SDS011;46421;48.610;9.334;2022-09-01T14:58:38;0.15;;;0.15;;
60588;SDS011;46421;48.610;9.334;2022-09-01T15:01:04;0.10;;;0.10;;
60588;SDS011;46421;48.610;9.334;2022-09-01T15:03:29;0.10;;;0.10;;
60588;SDS011;46421;48.610;9.334;2022-09-01T15:05:54;0.10;;;0.10;;
60588;SDS011;46421;48.610;9.334;2022-09-01T15:08:20;0.10;;;0.10;;
60588;SDS011;46421;48.610;9.334;2022-09-01T15:10:46;0.10;;;0.10;;
60588;SDS011;46421;48.610;9.334;2022-09-01T15:13:11;0.05;;;0.05;;
60588;SDS011;46421;48.610;9.334;2022-09-01T15:15:37;0.10;;;0.10;;
60588;SDS011;46421;48.610;9.334;2022-09-01T15:18:02;0.00;;;0.00;;
60588;SDS011;46421;48.610;9.334;2022-09-01T15:20:28;0.10;;;0.10;;
60588;SDS011;46421;48.610;9.334;2022-09-01T15:22:54;0.10;;;0.10;;
60588;SDS011;46421;48.610;9.334;2022-09-01T15:25:19;0.15;;;0.15;;
60588;SDS011;46421;48.610;9.334;2022-09-01T15:27:45;0.10;;;0.10;;
60588;SDS011;46421;48.610;9.334;2022-09-01T15:30:10;0.20;;;0.20;;
60588;SDS011;46421;48.610;9.334;2022-09-01T15:32:36;0.10;;;0.10;;
60588;SDS011;46421;48.610;9.334;2022-09-01T15:35:01;0.10;;;0.10;;
60588;SDS011;46421;48.610;9.334;2022-09-01T15:37:26;0.10;;;0.10;;